Akureyri, Iceland

10:17 PM GMT on September 22, 2014 (GMT +0000)
Akureyri | Change Station
CLOSE
Current Station
Airport
Location: Akureyri,
Elevation: 89 ft
Nearby Weather Stations

Elev 89 ft 65.66 °N, 18.07 °W | Updated 17 minutes ago

Scattered Clouds
Scattered Clouds
50 °F
Feels Like 50 °F
N
13
Wind Variable Wind from South

Today
High -- | Low -- °F
--% Chance of Precip.
Yesterday
High -- | Low -- °F
Precip. -- in
6:54 AM 7:14 PM
Waning Crescent, 2% visible
Pressure 29.50 in
Visibility 6.2 miles
Clouds Scattered Clouds 5400 ft
Dew Point 39 °F
Humidity 66%
Rainfall 0.00 in
Snow Depth Not available.
UV 0 out of 12
Pollen Not available.
Air Quality Not available.
Flu Activity Not available.
METAR BIAR 222200Z 18011KT 9999 SCT054 10/04 Q0999

More Conditions Fewer Conditions

Pressure 29.50 in
Visibility 6.2 miles
Clouds Scattered Clouds 5400 ft
Dew Point 39 °F
Humidity 66%
Rainfall 0.00 in
Snow Depth Not available.
UV 0 out of 12
Pollen Not available.
Air Quality Not available.
Flu Activity Not available.
METAR BIAR 222200Z 18011KT 9999 SCT054 10/04 Q0999

More Conditions Fewer Conditions

10-Day Weather Forecast

Almanac

Astronomy

Sep. 22, 2014 Rise Set
Actual Time 6:54 AM GMT 7:14 PM GMT
Civil Twilight 6:03 AM GMT 8:04 PM GMT
Nautical Twilight 5:00 AM GMT 9:07 PM GMT
Astronomical Twilight 3:45 AM GMT 10:20 PM GMT
Moon 4:43 AM GMT 6:31 PM GMT
Length of Visible Light 14h 01m
Length of Day
12h 19m
Tomorrow will be 6m 53s shorter.
Waning Crescent, 2% of the Moon is Illuminated
Today
Waning Crescent
Sep 24
New
Oct 1
First Quarter
Oct 8
Full
Oct 15
Last Quarter

Today's Extremes

Country Highs Country Lows

Community

WunderPhotos

Upload Photos

1,755,539 photos uploaded!

Nearby

Snow Depth

Not available.

Earthquake Activity

City Distance Mag. Time & Date
No recent earthquake activity has been reported nearby.
Minimum magnitude displayed is 2.5.

Coastal Water Temperatures

Place Temperature
No Stations Reporting

Nearby Weather Stations